sensor_id;sensor_type;location;lat;lon;timestamp;P1;durP1;ratioP1;P2;durP2;ratioP2
53207;SDS011;39093;52.788;6.940;2023-02-13T00:00:20;18.48;;;11.55;;
53207;SDS011;39093;52.788;6.940;2023-02-13T00:02:49;17.02;;;12.18;;
53207;SDS011;39093;52.788;6.940;2023-02-13T00:05:16;18.17;;;11.75;;
53207;SDS011;39093;52.788;6.940;2023-02-13T00:07:43;16.67;;;11.55;;
53207;SDS011;39093;52.788;6.940;2023-02-13T00:10:10;18.77;;;11.90;;
53207;SDS011;39093;52.788;6.940;2023-02-13T00:12:37;19.05;;;12.02;;
53207;SDS011;39093;52.788;6.940;2023-02-13T00:15:05;17.27;;;12.38;;
53207;SDS011;39093;52.788;6.940;2023-02-13T00:17:32;20.40;;;12.60;;
53207;SDS011;39093;52.788;6.940;2023-02-13T00:19:59;19.88;;;12.63;;
53207;SDS011;39093;52.788;6.940;2023-02-13T00:22:26;19.70;;;12.77;;
53207;SDS011;39093;52.788;6.940;2023-02-13T00:24:53;21.48;;;12.68;;
53207;SDS011;39093;52.788;6.940;2023-02-13T00:27:20;20.83;;;12.88;;
53207;SDS011;39093;52.788;6.940;2023-02-13T00:29:47;19.30;;;12.00;;
53207;SDS011;39093;52.788;6.940;2023-02-13T00:32:13;22.58;;;12.77;;
53207;SDS011;39093;52.788;6.940;2023-02-13T00:34:40;21.52;;;12.93;;
53207;SDS011;39093;52.788;6.940;2023-02-13T00:37:09;16.52;;;12.00;;
53207;SDS011;39093;52.788;6.940;2023-02-13T00:39:36;20.20;;;12.48;;
53207;SDS011;39093;52.788;6.940;2023-02-13T00:42:03;18.67;;;12.70;;
53207;SDS011;39093;52.788;6.940;2023-02-13T00:44:30;17.70;;;12.57;;
53207;SDS011;39093;52.788;6.940;2023-02-13T00:46:57;18.20;;;12.43;;
53207;SDS011;39093;52.788;6.940;2023-02-13T00:49:24;19.77;;;12.65;;
53207;SDS011;39093;52.788;6.940;2023-02-13T00:51:51;20.40;;;12.98;;
53207;SDS011;39093;52.788;6.940;2023-02-13T00:54:18;21.40;;;13.93;;
53207;SDS011;39093;52.788;6.940;2023-02-13T00:56:45;23.70;;;13.52;;
53207;SDS011;39093;52.788;6.940;2023-02-13T00:59:12;20.20;;;13.98;;
53207;SDS011;39093;52.788;6.940;2023-02-13T01:01:39;18.67;;;12.70;;
53207;SDS011;39093;52.788;6.940;2023-02-13T01:04:06;19.77;;;12.88;;
53207;SDS011;39093;52.788;6.940;2023-02-13T01:06:33;19.95;;;13.35;;
53207;SDS011;39093;52.788;6.940;2023-02-13T01:09:01;20.00;;;13.13;;
53207;SDS011;39093;52.788;6.940;2023-02-13T01:11:29;18.80;;;13.30;;
53207;SDS011;39093;52.788;6.940;2023-02-13T01:13:56;20.95;;;13.63;;
53207;SDS011;39093;52.788;6.940;2023-02-13T01:16:23;22.27;;;13.27;;
53207;SDS011;39093;52.788;6.940;2023-02-13T01:18:50;19.77;;;13.40;;
53207;SDS011;39093;52.788;6.940;2023-02-13T01:21:17;21.88;;;14.13;;
53207;SDS011;39093;52.788;6.940;2023-02-13T01:23:46;22.10;;;14.77;;
53207;SDS011;39093;52.788;6.940;2023-02-13T01:26:20;21.60;;;13.60;;
53207;SDS011;39093;52.788;6.940;2023-02-13T01:28:54;22.48;;;13.52;;
53207;SDS011;39093;52.788;6.940;2023-02-13T01:31:23;18.40;;;13.05;;
53207;SDS011;39093;52.788;6.940;2023-02-13T01:33:50;20.13;;;13.57;;
53207;SDS011;39093;52.788;6.940;2023-02-13T01:36:18;21.65;;;13.80;;
53207;SDS011;39093;52.788;6.940;2023-02-13T01:38:44;22.73;;;13.98;;
53207;SDS011;39093;52.788;6.940;2023-02-13T01:41:11;25.10;;;14.00;;
53207;SDS011;39093;52.788;6.940;2023-02-13T01:44:01;23.55;;;14.40;;
53207;SDS011;39093;52.788;6.940;2023-02-13T01:46:29;19.58;;;13.15;;
53207;SDS011;39093;52.788;6.940;2023-02-13T01:51:41;22.00;;;14.60;;
53207;SDS011;39093;52.788;6.940;2023-02-13T01:54:16;22.38;;;12.82;;
53207;SDS011;39093;52.788;6.940;2023-02-13T01:56:51;18.75;;;13.25;;
53207;SDS011;39093;52.788;6.940;2023-02-13T01:59:24;24.17;;;14.05;;
53207;SDS011;39093;52.788;6.940;2023-02-13T02:01:55;20.17;;;13.05;;
53207;SDS011;39093;52.788;6.940;2023-02-13T02:04:33;20.45;;;13.70;;
53207;SDS011;39093;52.788;6.940;2023-02-13T02:07:05;19.35;;;14.25;;
53207;SDS011;39093;52.788;6.940;2023-02-13T02:09:37;21.73;;;13.98;;
53207;SDS011;39093;52.788;6.940;2023-02-13T02:12:11;23.50;;;14.30;;
53207;SDS011;39093;52.788;6.940;2023-02-13T02:14:59;17.23;;;12.98;;
53207;SDS011;39093;52.788;6.940;2023-02-13T02:17:28;20.98;;;13.45;;
53207;SDS011;39093;52.788;6.940;2023-02-13T02:40:47;23.10;;;14.63;;
53207;SDS011;39093;52.788;6.940;2023-02-13T02:56:51;23.05;;;13.90;;
53207;SDS011;39093;52.788;6.940;2023-02-13T02:59:20;22.55;;;14.27;;
53207;SDS011;39093;52.788;6.940;2023-02-13T03:02:08;19.90;;;14.60;;
53207;SDS011;39093;52.788;6.940;2023-02-13T03:04:55;22.98;;;15.10;;
53207;SDS011;39093;52.788;6.940;2023-02-13T03:07:44;18.15;;;13.98;;
53207;SDS011;39093;52.788;6.940;2023-02-13T03:10:22;24.45;;;15.43;;
53207;SDS011;39093;52.788;6.940;2023-02-13T03:13:16;22.70;;;15.30;;
53207;SDS011;39093;52.788;6.940;2023-02-13T03:15:56;24.30;;;14.80;;
53207;SDS011;39093;52.788;6.940;2023-02-13T03:18:45;23.13;;;15.43;;
53207;SDS011;39093;52.788;6.940;2023-02-13T03:29:43;26.00;;;15.23;;
53207;SDS011;39093;52.788;6.940;2023-02-13T03:38:14;25.45;;;15.57;;
53207;SDS011;39093;52.788;6.940;2023-02-13T03:40:57;21.58;;;14.38;;
53207;SDS011;39093;52.788;6.940;2023-02-13T03:46:58;26.63;;;15.93;;
53207;SDS011;39093;52.788;6.940;2023-02-13T03:49:28;27.40;;;15.95;;
53207;SDS011;39093;52.788;6.940;2023-02-13T03:55:00;27.92;;;15.25;;
53207;SDS011;39093;52.788;6.940;2023-02-13T03:57:59;22.23;;;14.30;;
53207;SDS011;39093;52.788;6.940;2023-02-13T04:00:51;19.88;;;14.88;;
53207;SDS011;39093;52.788;6.940;2023-02-13T04:06:07;24.23;;;15.38;;
53207;SDS011;39093;52.788;6.940;2023-02-13T04:08:37;26.95;;;16.50;;
53207;SDS011;39093;52.788;6.940;2023-02-13T04:14:20;24.95;;;16.23;;
53207;SDS011;39093;52.788;6.940;2023-02-13T04:17:07;26.40;;;17.65;;
53207;SDS011;39093;52.788;6.940;2023-02-13T04:19:39;26.88;;;15.95;;
53207;SDS011;39093;52.788;6.940;2023-02-13T04:22:07;25.77;;;17.10;;
53207;SDS011;39093;52.788;6.940;2023-02-13T04:24:33;24.10;;;15.85;;
53207;SDS011;39093;52.788;6.940;2023-02-13T04:27:00;25.33;;;15.10;;
53207;SDS011;39093;52.788;6.940;2023-02-13T04:29:27;23.90;;;14.77;;
53207;SDS011;39093;52.788;6.940;2023-02-13T04:31:54;26.67;;;16.10;;
53207;SDS011;39093;52.788;6.940;2023-02-13T04:34:21;24.35;;;16.30;;
53207;SDS011;39093;52.788;6.940;2023-02-13T04:36:48;25.60;;;15.80;;
53207;SDS011;39093;52.788;6.940;2023-02-13T04:39:14;25.13;;;17.02;;
53207;SDS011;39093;52.788;6.940;2023-02-13T04:41:41;24.20;;;15.23;;
53207;SDS011;39093;52.788;6.940;2023-02-13T04:44:08;27.95;;;17.02;;
53207;SDS011;39093;52.788;6.940;2023-02-13T04:46:35;27.00;;;17.48;;
53207;SDS011;39093;52.788;6.940;2023-02-13T04:49:02;26.08;;;16.80;;
53207;SDS011;39093;52.788;6.940;2023-02-13T04:51:29;24.98;;;16.23;;
53207;SDS011;39093;52.788;6.940;2023-02-13T04:53:55;23.90;;;15.55;;
53207;SDS011;39093;52.788;6.940;2023-02-13T04:56:22;24.75;;;15.63;;
53207;SDS011;39093;52.788;6.940;2023-02-13T04:58:49;27.38;;;15.85;;
53207;SDS011;39093;52.788;6.940;2023-02-13T05:01:16;27.42;;;16.05;;
53207;SDS011;39093;52.788;6.940;2023-02-13T05:03:43;25.50;;;16.02;;
53207;SDS011;39093;52.788;6.940;2023-02-13T05:06:11;29.48;;;17.60;;
53207;SDS011;39093;52.788;6.940;2023-02-13T05:08:38;28.70;;;17.52;;
53207;SDS011;39093;52.788;6.940;2023-02-13T05:11:04;27.00;;;16.55;;
53207;SDS011;39093;52.788;6.940;2023-02-13T05:13:32;23.83;;;15.68;;
53207;SDS011;39093;52.788;6.940;2023-02-13T05:15:59;30.05;;;16.65;;
53207;SDS011;39093;52.788;6.940;2023-02-13T05:18:26;29.60;;;18.63;;
53207;SDS011;39093;52.788;6.940;2023-02-13T05:20:53;26.95;;;16.83;;
53207;SDS011;39093;52.788;6.940;2023-02-13T05:23:38;27.15;;;16.70;;
53207;SDS011;39093;52.788;6.940;2023-02-13T05:26:05;25.23;;;17.15;;
53207;SDS011;39093;52.788;6.940;2023-02-13T05:28:32;26.55;;;17.48;;
53207;SDS011;39093;52.788;6.940;2023-02-13T05:31:18;28.40;;;17.60;;
53207;SDS011;39093;52.788;6.940;2023-02-13T05:33:44;27.05;;;17.27;;
53207;SDS011;39093;52.788;6.940;2023-02-13T05:36:12;26.83;;;16.67;;
53207;SDS011;39093;52.788;6.940;2023-02-13T05:38:38;28.27;;;17.23;;
53207;SDS011;39093;52.788;6.940;2023-02-13T05:41:06;27.48;;;17.30;;
53207;SDS011;39093;52.788;6.940;2023-02-13T05:43:33;29.27;;;18.30;;
53207;SDS011;39093;52.788;6.940;2023-02-13T05:46:07;30.70;;;18.08;;
53207;SDS011;39093;52.788;6.940;2023-02-13T05:48:35;26.50;;;16.38;;
53207;SDS011;39093;52.788;6.940;2023-02-13T05:51:02;25.30;;;16.30;;
53207;SDS011;39093;52.788;6.940;2023-02-13T05:53:30;30.67;;;17.20;;
53207;SDS011;39093;52.788;6.940;2023-02-13T05:56:00;30.00;;;17.58;;
53207;SDS011;39093;52.788;6.940;2023-02-13T05:58:28;26.45;;;16.27;;
53207;SDS011;39093;52.788;6.940;2023-02-13T06:00:56;28.85;;;16.85;;
53207;SDS011;39093;52.788;6.940;2023-02-13T06:03:25;25.25;;;16.90;;
53207;SDS011;39093;52.788;6.940;2023-02-13T06:05:53;31.17;;;18.13;;
53207;SDS011;39093;52.788;6.940;2023-02-13T06:08:21;29.48;;;18.38;;
53207;SDS011;39093;52.788;6.940;2023-02-13T06:10:49;28.13;;;18.50;;
53207;SDS011;39093;52.788;6.940;2023-02-13T06:13:16;27.23;;;17.23;;
53207;SDS011;39093;52.788;6.940;2023-02-13T06:15:44;29.27;;;17.35;;
53207;SDS011;39093;52.788;6.940;2023-02-13T06:18:11;28.83;;;18.00;;
53207;SDS011;39093;52.788;6.940;2023-02-13T06:20:38;26.85;;;16.42;;
53207;SDS011;39093;52.788;6.940;2023-02-13T06:23:05;28.20;;;16.50;;
53207;SDS011;39093;52.788;6.940;2023-02-13T06:25:33;28.73;;;17.13;;
53207;SDS011;39093;52.788;6.940;2023-02-13T06:28:01;29.58;;;17.13;;
53207;SDS011;39093;52.788;6.940;2023-02-13T06:30:29;28.20;;;17.92;;
53207;SDS011;39093;52.788;6.940;2023-02-13T06:32:56;26.60;;;16.80;;
53207;SDS011;39093;52.788;6.940;2023-02-13T06:35:23;26.20;;;17.83;;
53207;SDS011;39093;52.788;6.940;2023-02-13T06:37:50;31.83;;;17.88;;
53207;SDS011;39093;52.788;6.940;2023-02-13T06:40:17;27.60;;;17.65;;
53207;SDS011;39093;52.788;6.940;2023-02-13T06:42:44;26.92;;;16.45;;
53207;SDS011;39093;52.788;6.940;2023-02-13T06:45:12;26.77;;;16.92;;
53207;SDS011;39093;52.788;6.940;2023-02-13T06:47:40;29.02;;;19.02;;
53207;SDS011;39093;52.788;6.940;2023-02-13T06:50:11;27.67;;;17.92;;
53207;SDS011;39093;52.788;6.940;2023-02-13T06:52:40;29.15;;;17.67;;
53207;SDS011;39093;52.788;6.940;2023-02-13T06:55:12;30.02;;;17.70;;
53207;SDS011;39093;52.788;6.940;2023-02-13T06:57:40;29.95;;;17.70;;
53207;SDS011;39093;52.788;6.940;2023-02-13T07:00:08;27.80;;;17.38;;
53207;SDS011;39093;52.788;6.940;2023-02-13T07:02:38;32.00;;;18.15;;
53207;SDS011;39093;52.788;6.940;2023-02-13T07:05:06;26.92;;;18.25;;
53207;SDS011;39093;52.788;6.940;2023-02-13T07:07:35;28.70;;;17.95;;
53207;SDS011;39093;52.788;6.940;2023-02-13T07:10:03;31.10;;;16.95;;
53207;SDS011;39093;52.788;6.940;2023-02-13T07:12:32;34.88;;;18.52;;
53207;SDS011;39093;52.788;6.940;2023-02-13T07:15:00;26.02;;;17.23;;
53207;SDS011;39093;52.788;6.940;2023-02-13T07:17:26;33.83;;;17.60;;
53207;SDS011;39093;52.788;6.940;2023-02-13T07:19:53;27.77;;;17.55;;
53207;SDS011;39093;52.788;6.940;2023-02-13T07:22:20;27.65;;;16.83;;
53207;SDS011;39093;52.788;6.940;2023-02-13T07:24:47;29.52;;;18.60;;
53207;SDS011;39093;52.788;6.940;2023-02-13T07:27:14;31.30;;;17.77;;
53207;SDS011;39093;52.788;6.940;2023-02-13T07:29:41;28.30;;;18.02;;
53207;SDS011;39093;52.788;6.940;2023-02-13T07:32:08;28.50;;;17.23;;
53207;SDS011;39093;52.788;6.940;2023-02-13T07:34:35;31.38;;;17.85;;
53207;SDS011;39093;52.788;6.940;2023-02-13T07:37:02;31.50;;;17.17;;
53207;SDS011;39093;52.788;6.940;2023-02-13T07:39:29;30.92;;;18.10;;
53207;SDS011;39093;52.788;6.940;2023-02-13T07:41:56;30.02;;;17.30;;
53207;SDS011;39093;52.788;6.940;2023-02-13T07:44:23;29.92;;;18.88;;
53207;SDS011;39093;52.788;6.940;2023-02-13T07:46:50;31.52;;;18.63;;
53207;SDS011;39093;52.788;6.940;2023-02-13T07:49:17;31.40;;;17.48;;
53207;SDS011;39093;52.788;6.940;2023-02-13T07:51:44;27.60;;;17.60;;
53207;SDS011;39093;52.788;6.940;2023-02-13T07:54:11;26.48;;;17.35;;
53207;SDS011;39093;52.788;6.940;2023-02-13T07:56:38;30.42;;;18.40;;
53207;SDS011;39093;52.788;6.940;2023-02-13T07:59:05;30.00;;;18.63;;
53207;SDS011;39093;52.788;6.940;2023-02-13T08:01:33;29.55;;;17.33;;
53207;SDS011;39093;52.788;6.940;2023-02-13T08:04:00;31.67;;;18.35;;
53207;SDS011;39093;52.788;6.940;2023-02-13T08:06:27;30.38;;;18.80;;
53207;SDS011;39093;52.788;6.940;2023-02-13T08:08:53;32.08;;;19.10;;
53207;SDS011;39093;52.788;6.940;2023-02-13T08:11:40;31.83;;;18.83;;
53207;SDS011;39093;52.788;6.940;2023-02-13T08:14:23;29.52;;;18.20;;
53207;SDS011;39093;52.788;6.940;2023-02-13T08:16:51;29.13;;;17.98;;
53207;SDS011;39093;52.788;6.940;2023-02-13T08:19:19;37.28;;;19.30;;
53207;SDS011;39093;52.788;6.940;2023-02-13T08:21:46;30.63;;;18.33;;
53207;SDS011;39093;52.788;6.940;2023-02-13T08:24:13;39.88;;;22.85;;
53207;SDS011;39093;52.788;6.940;2023-02-13T08:26:40;33.92;;;21.15;;
53207;SDS011;39093;52.788;6.940;2023-02-13T08:29:07;31.70;;;18.85;;
53207;SDS011;39093;52.788;6.940;2023-02-13T08:31:35;33.33;;;18.55;;
53207;SDS011;39093;52.788;6.940;2023-02-13T08:34:03;28.63;;;18.08;;
53207;SDS011;39093;52.788;6.940;2023-02-13T08:36:30;33.70;;;19.95;;
53207;SDS011;39093;52.788;6.940;2023-02-13T08:38:57;32.17;;;19.30;;
53207;SDS011;39093;52.788;6.940;2023-02-13T08:41:24;36.72;;;18.50;;
53207;SDS011;39093;52.788;6.940;2023-02-13T08:43:52;32.60;;;17.90;;
53207;SDS011;39093;52.788;6.940;2023-02-13T08:46:19;27.85;;;17.65;;
53207;SDS011;39093;52.788;6.940;2023-02-13T08:48:46;31.27;;;18.67;;
53207;SDS011;39093;52.788;6.940;2023-02-13T08:51:13;32.25;;;18.63;;
53207;SDS011;39093;52.788;6.940;2023-02-13T08:53:40;32.95;;;19.50;;
53207;SDS011;39093;52.788;6.940;2023-02-13T08:56:08;33.38;;;19.17;;
53207;SDS011;39093;52.788;6.940;2023-02-13T08:58:35;31.63;;;18.77;;
53207;SDS011;39093;52.788;6.940;2023-02-13T09:01:06;29.83;;;18.65;;
53207;SDS011;39093;52.788;6.940;2023-02-13T09:03:33;31.77;;;17.95;;
53207;SDS011;39093;52.788;6.940;2023-02-13T09:06:01;58.55;;;33.33;;
53207;SDS011;39093;52.788;6.940;2023-02-13T09:08:29;31.00;;;18.40;;
53207;SDS011;39093;52.788;6.940;2023-02-13T09:10:57;31.35;;;18.25;;
53207;SDS011;39093;52.788;6.940;2023-02-13T09:13:27;29.52;;;17.63;;
53207;SDS011;39093;52.788;6.940;2023-02-13T09:15:58;28.38;;;17.65;;
53207;SDS011;39093;52.788;6.940;2023-02-13T09:18:27;28.20;;;17.10;;
53207;SDS011;39093;52.788;6.940;2023-02-13T09:20:58;26.50;;;16.42;;
53207;SDS011;39093;52.788;6.940;2023-02-13T09:23:29;31.65;;;17.75;;
53207;SDS011;39093;52.788;6.940;2023-02-13T09:26:04;26.38;;;16.70;;
53207;SDS011;39093;52.788;6.940;2023-02-13T09:28:32;30.90;;;17.60;;
53207;SDS011;39093;52.788;6.940;2023-02-13T09:31:04;31.92;;;18.70;;
53207;SDS011;39093;52.788;6.940;2023-02-13T09:33:33;28.17;;;16.73;;
53207;SDS011;39093;52.788;6.940;2023-02-13T09:36:04;32.97;;;18.13;;
53207;SDS011;39093;52.788;6.940;2023-02-13T09:38:32;28.63;;;15.75;;
53207;SDS011;39093;52.788;6.940;2023-02-13T09:41:01;32.40;;;18.15;;
53207;SDS011;39093;52.788;6.940;2023-02-13T09:43:36;36.90;;;19.50;;
53207;SDS011;39093;52.788;6.940;2023-02-13T09:46:11;33.47;;;18.60;;
53207;SDS011;39093;52.788;6.940;2023-02-13T09:48:43;31.70;;;18.00;;
53207;SDS011;39093;52.788;6.940;2023-02-13T09:51:16;29.27;;;18.23;;
53207;SDS011;39093;52.788;6.940;2023-02-13T09:53:52;29.98;;;18.73;;
53207;SDS011;39093;52.788;6.940;2023-02-13T09:56:36;31.73;;;18.40;;
53207;SDS011;39093;52.788;6.940;2023-02-13T10:02:22;34.33;;;20.60;;
53207;SDS011;39093;52.788;6.940;2023-02-13T10:16:34;39.28;;;23.20;;
53207;SDS011;39093;52.788;6.940;2023-02-13T10:21:58;33.15;;;20.08;;
53207;SDS011;39093;52.788;6.940;2023-02-13T10:27:21;38.13;;;21.38;;
53207;SDS011;39093;52.788;6.940;2023-02-13T10:30:06;32.85;;;20.92;;
53207;SDS011;39093;52.788;6.940;2023-02-13T10:35:19;35.42;;;21.77;;
53207;SDS011;39093;52.788;6.940;2023-02-13T10:37:56;31.95;;;20.95;;
53207;SDS011;39093;52.788;6.940;2023-02-13T10:40:31;37.65;;;23.27;;
53207;SDS011;39093;52.788;6.940;2023-02-13T10:43:09;37.70;;;21.50;;
53207;SDS011;39093;52.788;6.940;2023-02-13T10:45:45;36.15;;;21.30;;
53207;SDS011;39093;52.788;6.940;2023-02-13T10:51:26;32.22;;;20.92;;
53207;SDS011;39093;52.788;6.940;2023-02-13T10:59:39;33.30;;;21.48;;
53207;SDS011;39093;52.788;6.940;2023-02-13T11:02:34;32.83;;;22.17;;
53207;SDS011;39093;52.788;6.940;2023-02-13T11:07:49;33.42;;;20.85;;
53207;SDS011;39093;52.788;6.940;2023-02-13T11:10:17;33.35;;;20.58;;
53207;SDS011;39093;52.788;6.940;2023-02-13T11:12:46;31.05;;;20.88;;
53207;SDS011;39093;52.788;6.940;2023-02-13T11:15:34;36.45;;;23.63;;
53207;SDS011;39093;52.788;6.940;2023-02-13T11:18:09;31.77;;;21.17;;
53207;SDS011;39093;52.788;6.940;2023-02-13T11:20:44;35.13;;;21.23;;
53207;SDS011;39093;52.788;6.940;2023-02-13T11:25:41;28.98;;;20.70;;
53207;SDS011;39093;52.788;6.940;2023-02-13T11:28:22;31.48;;;21.67;;
53207;SDS011;39093;52.788;6.940;2023-02-13T11:30:49;36.50;;;22.30;;
53207;SDS011;39093;52.788;6.940;2023-02-13T11:35:44;32.45;;;21.40;;
53207;SDS011;39093;52.788;6.940;2023-02-13T11:40:43;29.92;;;21.50;;
53207;SDS011;39093;52.788;6.940;2023-02-13T11:43:24;35.05;;;21.77;;
53207;SDS011;39093;52.788;6.940;2023-02-13T11:46:01;30.90;;;21.20;;
53207;SDS011;39093;52.788;6.940;2023-02-13T11:49:04;42.47;;;27.67;;
53207;SDS011;39093;52.788;6.940;2023-02-13T11:51:40;34.22;;;24.27;;
53207;SDS011;39093;52.788;6.940;2023-02-13T11:59:49;31.88;;;20.90;;
53207;SDS011;39093;52.788;6.940;2023-02-13T12:04:45;27.63;;;20.67;;
53207;SDS011;39093;52.788;6.940;2023-02-13T12:12:58;26.45;;;19.75;;
53207;SDS011;39093;52.788;6.940;2023-02-13T12:15:33;25.60;;;19.27;;
53207;SDS011;39093;52.788;6.940;2023-02-13T12:18:04;25.40;;;18.88;;
53207;SDS011;39093;52.788;6.940;2023-02-13T12:20:51;24.35;;;18.15;;
53207;SDS011;39093;52.788;6.940;2023-02-13T12:27:11;22.38;;;17.95;;
53207;SDS011;39093;52.788;6.940;2023-02-13T12:32:36;21.40;;;17.15;;
53207;SDS011;39093;52.788;6.940;2023-02-13T12:35:24;21.25;;;17.10;;
53207;SDS011;39093;52.788;6.940;2023-02-13T12:52:10;25.27;;;18.70;;
53207;SDS011;39093;52.788;6.940;2023-02-13T13:06:20;35.45;;;19.42;;
53207;SDS011;39093;52.788;6.940;2023-02-13T13:09:01;23.77;;;18.10;;
53207;SDS011;39093;52.788;6.940;2023-02-13T13:17:11;20.75;;;17.05;;
53207;SDS011;39093;52.788;6.940;2023-02-13T13:22:52;21.93;;;16.73;;
53207;SDS011;39093;52.788;6.940;2023-02-13T13:27:54;22.98;;;18.30;;
53207;SDS011;39093;52.788;6.940;2023-02-13T13:30:31;23.77;;;18.58;;
53207;SDS011;39093;52.788;6.940;2023-02-13T13:33:05;20.52;;;18.23;;
53207;SDS011;39093;52.788;6.940;2023-02-13T13:35:44;21.42;;;18.40;;
53207;SDS011;39093;52.788;6.940;2023-02-13T13:41:22;23.50;;;20.00;;
53207;SDS011;39093;52.788;6.940;2023-02-13T13:51:39;23.95;;;20.73;;
53207;SDS011;39093;52.788;6.940;2023-02-13T13:59:19;25.75;;;21.42;;
53207;SDS011;39093;52.788;6.940;2023-02-13T14:07:39;26.33;;;21.23;;
53207;SDS011;39093;52.788;6.940;2023-02-13T14:12:48;24.85;;;21.15;;
53207;SDS011;39093;52.788;6.940;2023-02-13T14:20:41;23.30;;;19.25;;
53207;SDS011;39093;52.788;6.940;2023-02-13T14:34:08;24.02;;;19.55;;
53207;SDS011;39093;52.788;6.940;2023-02-13T14:36:59;22.08;;;17.92;;
53207;SDS011;39093;52.788;6.940;2023-02-13T14:39:29;21.20;;;18.05;;
53207;SDS011;39093;52.788;6.940;2023-02-13T14:41:58;22.48;;;18.55;;
53207;SDS011;39093;52.788;6.940;2023-02-13T14:47:21;24.52;;;18.92;;
53207;SDS011;39093;52.788;6.940;2023-02-13T14:50:01;21.17;;;17.38;;
53207;SDS011;39093;52.788;6.940;2023-02-13T14:52:34;24.33;;;18.08;;
53207;SDS011;39093;52.788;6.940;2023-02-13T14:57:43;23.77;;;17.80;;
53207;SDS011;39093;52.788;6.940;2023-02-13T15:00:32;23.85;;;19.35;;
53207;SDS011;39093;52.788;6.940;2023-02-13T15:14:33;23.50;;;19.33;;
53207;SDS011;39093;52.788;6.940;2023-02-13T15:17:10;26.08;;;20.20;;
53207;SDS011;39093;52.788;6.940;2023-02-13T15:19:45;22.77;;;18.83;;
53207;SDS011;39093;52.788;6.940;2023-02-13T15:22:24;24.60;;;20.02;;
53207;SDS011;39093;52.788;6.940;2023-02-13T15:25:06;26.88;;;20.85;;
53207;SDS011;39093;52.788;6.940;2023-02-13T15:27:39;26.52;;;21.38;;
53207;SDS011;39093;52.788;6.940;2023-02-13T15:30:17;31.23;;;23.50;;
53207;SDS011;39093;52.788;6.940;2023-02-13T15:32:53;29.20;;;22.60;;
53207;SDS011;39093;52.788;6.940;2023-02-13T15:35:25;26.60;;;21.85;;
53207;SDS011;39093;52.788;6.940;2023-02-13T15:37:52;26.80;;;21.67;;
53207;SDS011;39093;52.788;6.940;2023-02-13T15:40:30;28.45;;;22.42;;
53207;SDS011;39093;52.788;6.940;2023-02-13T15:43:01;29.88;;;22.85;;
53207;SDS011;39093;52.788;6.940;2023-02-13T15:45:28;29.13;;;22.85;;
53207;SDS011;39093;52.788;6.940;2023-02-13T15:47:55;31.42;;;24.15;;
53207;SDS011;39093;52.788;6.940;2023-02-13T15:50:30;31.70;;;22.85;;
53207;SDS011;39093;52.788;6.940;2023-02-13T15:53:02;31.60;;;24.10;;
53207;SDS011;39093;52.788;6.940;2023-02-13T15:55:35;29.85;;;23.42;;
53207;SDS011;39093;52.788;6.940;2023-02-13T15:58:03;30.83;;;23.92;;
53207;SDS011;39093;52.788;6.940;2023-02-13T16:00:35;31.20;;;24.15;;
53207;SDS011;39093;52.788;6.940;2023-02-13T16:03:05;32.08;;;24.80;;
53207;SDS011;39093;52.788;6.940;2023-02-13T16:05:40;31.48;;;23.25;;
53207;SDS011;39093;52.788;6.940;2023-02-13T16:08:23;33.75;;;23.23;;
53207;SDS011;39093;52.788;6.940;2023-02-13T16:17:20;35.13;;;26.20;;
53207;SDS011;39093;52.788;6.940;2023-02-13T16:19:30;32.53;;;25.10;;
53207;SDS011;39093;52.788;6.940;2023-02-13T16:22:44;35.17;;;26.48;;
53207;SDS011;39093;52.788;6.940;2023-02-13T16:25:00;33.92;;;25.88;;
53207;SDS011;39093;52.788;6.940;2023-02-13T16:27:32;36.60;;;25.90;;
53207;SDS011;39093;52.788;6.940;2023-02-13T16:30:02;35.55;;;27.52;;
53207;SDS011;39093;52.788;6.940;2023-02-13T16:32:32;36.92;;;26.98;;
53207;SDS011;39093;52.788;6.940;2023-02-13T16:35:38;34.72;;;27.23;;
53207;SDS011;39093;52.788;6.940;2023-02-13T16:37:59;35.25;;;27.00;;
53207;SDS011;39093;52.788;6.940;2023-02-13T16:51:38;39.30;;;28.48;;
53207;SDS011;39093;52.788;6.940;2023-02-13T17:07:35;44.22;;;31.08;;
53207;SDS011;39093;52.788;6.940;2023-02-13T17:12:53;46.55;;;32.70;;
53207;SDS011;39093;52.788;6.940;2023-02-13T17:15:22;73.25;;;46.50;;
53207;SDS011;39093;52.788;6.940;2023-02-13T17:17:50;44.17;;;31.00;;
53207;SDS011;39093;52.788;6.940;2023-02-13T17:20:26;41.03;;;31.23;;
53207;SDS011;39093;52.788;6.940;2023-02-13T17:22:57;40.00;;;29.50;;
53207;SDS011;39093;52.788;6.940;2023-02-13T17:25:27;41.15;;;31.42;;
53207;SDS011;39093;52.788;6.940;2023-02-13T17:27:57;39.83;;;29.27;;
53207;SDS011;39093;52.788;6.940;2023-02-13T17:30:28;42.13;;;30.27;;
53207;SDS011;39093;52.788;6.940;2023-02-13T17:32:57;43.70;;;30.67;;
53207;SDS011;39093;52.788;6.940;2023-02-13T17:35:27;41.22;;;30.85;;
53207;SDS011;39093;52.788;6.940;2023-02-13T17:37:56;43.50;;;31.50;;
53207;SDS011;39093;52.788;6.940;2023-02-13T17:40:24;40.58;;;30.27;;
53207;SDS011;39093;52.788;6.940;2023-02-13T17:42:55;39.60;;;28.92;;
53207;SDS011;39093;52.788;6.940;2023-02-13T17:45:25;40.17;;;29.42;;
53207;SDS011;39093;52.788;6.940;2023-02-13T17:47:54;42.75;;;30.17;;
53207;SDS011;39093;52.788;6.940;2023-02-13T17:50:23;43.42;;;30.25;;
53207;SDS011;39093;52.788;6.940;2023-02-13T17:52:51;38.65;;;28.85;;
53207;SDS011;39093;52.788;6.940;2023-02-13T17:55:20;44.13;;;30.70;;
53207;SDS011;39093;52.788;6.940;2023-02-13T17:57:50;44.83;;;31.35;;
53207;SDS011;39093;52.788;6.940;2023-02-13T18:00:18;41.88;;;27.88;;
53207;SDS011;39093;52.788;6.940;2023-02-13T18:02:47;40.42;;;29.77;;
53207;SDS011;39093;52.788;6.940;2023-02-13T18:05:15;39.65;;;28.90;;
53207;SDS011;39093;52.788;6.940;2023-02-13T18:07:44;43.20;;;29.98;;
53207;SDS011;39093;52.788;6.940;2023-02-13T18:10:22;44.00;;;31.25;;
53207;SDS011;39093;52.788;6.940;2023-02-13T18:12:52;39.38;;;29.50;;
53207;SDS011;39093;52.788;6.940;2023-02-13T18:15:21;42.80;;;30.70;;
53207;SDS011;39093;52.788;6.940;2023-02-13T18:17:49;40.25;;;29.83;;
53207;SDS011;39093;52.788;6.940;2023-02-13T18:20:17;39.97;;;29.08;;
53207;SDS011;39093;52.788;6.940;2023-02-13T18:22:46;38.03;;;27.92;;
53207;SDS011;39093;52.788;6.940;2023-02-13T18:25:16;39.42;;;28.90;;
53207;SDS011;39093;52.788;6.940;2023-02-13T18:27:45;39.47;;;28.73;;
53207;SDS011;39093;52.788;6.940;2023-02-13T18:30:12;39.38;;;27.80;;
53207;SDS011;39093;52.788;6.940;2023-02-13T18:32:41;38.50;;;27.23;;
53207;SDS011;39093;52.788;6.940;2023-02-13T18:35:10;38.58;;;27.80;;
53207;SDS011;39093;52.788;6.940;2023-02-13T18:37:37;38.67;;;27.65;;
53207;SDS011;39093;52.788;6.940;2023-02-13T18:40:06;36.10;;;27.30;;
53207;SDS011;39093;52.788;6.940;2023-02-13T18:42:33;37.03;;;27.75;;
53207;SDS011;39093;52.788;6.940;2023-02-13T18:45:01;40.08;;;28.00;;
53207;SDS011;39093;52.788;6.940;2023-02-13T18:47:28;38.70;;;27.90;;
53207;SDS011;39093;52.788;6.940;2023-02-13T18:49:55;37.17;;;26.52;;
53207;SDS011;39093;52.788;6.940;2023-02-13T18:52:22;36.60;;;27.15;;
53207;SDS011;39093;52.788;6.940;2023-02-13T18:54:49;45.30;;;29.05;;
53207;SDS011;39093;52.788;6.940;2023-02-13T18:57:16;63.30;;;42.80;;